Time;durP1;ratioP1;P1;durP2;ratioP2;P2;SDS_P1;SDS_P2;PMS_P1;PMS_P2;Temp;Humidity;BMP_temperature;BMP_pressure;BME280_temperature;BME280_humidity;BME280_pressure;Samples;Min_cycle;Max_cycle;Signal;HPM_P1;HPM_P2
2023/04/21 00:03:02;;;;;;;;;;;;;;;8.91;70.01563;101756.9;;;;-69
2023/04/21 00:08:02;;;;;;;;;;;;;;;8.91;70.3584;101770.5;;;;-70
2023/04/21 00:12:05;;;;;;;13.8;6.6;;;;;;;;;;;;;-71
2023/04/21 00:13:01;;;;;;;;;;;;;;;8.92;70.1377;101766.1;;;;-70
2023/04/21 00:18:02;;;;;;;;;;;;;;;8.93;70.30469;101763.5;;;;-69
2023/04/21 00:23:02;;;;;;;;;;;;;;;8.92;70.54785;101751.9;;;;-70
2023/04/21 00:28:01;;;;;;;;;;;;;;;8.93;70.54785;101744.4;;;;-70
2023/04/21 00:33:01;;;;;;;;;;;;;;;8.93;70.35059;101743;;;;-71
2023/04/21 00:38:01;;;;;;;;;;;;;;;8.94;70.41797;101734.9;;;;-73
2023/04/21 00:42:06;;;;;;;12.4;6.9;;;;;;;;;;;;;-71
2023/04/21 00:43:01;;;;;;;;;;;;;;;8.91;70.94434;101715.8;;;;-70
2023/04/21 00:48:01;;;;;;;;;;;;;;;8.91;70.75684;101714.5;;;;-71
2023/04/21 00:53:04;;;;;;;;;;;;;;;8.93;70.6709;101706.1;;;;-70
2023/04/21 00:58:01;;;;;;;;;;;;;;;8.93;70.90137;101695.2;;;;-70
2023/04/21 01:03:02;;;;;;;;;;;;;;;8.92;70.52539;101682.4;;;;-70
2023/04/21 01:08:01;;;;;;;;;;;;;;;8.9;71.40527;101683.1;;;;-71
2023/04/21 01:12:09;;;;;;;15.2;7.7;;;;;;;;;;;;;-70
2023/04/21 01:13:02;;;;;;;;;;;;;;;8.91;71;101685.1;;;;-69
2023/04/21 01:18:01;;;;;;;;;;;;;;;8.86;71.0127;101689.9;;;;-70
2023/04/21 01:23:01;;;;;;;;;;;;;;;8.84;70.94336;101677.7;;;;-70
2023/04/21 01:28:01;;;;;;;;;;;;;;;8.85;70.86816;101674.9;;;;-72
2023/04/21 01:33:01;;;;;;;;;;;;;;;8.89;70.6748;101683.3;;;;-70
2023/04/21 01:38:04;;;;;;;;;;;;;;;8.88;70.51953;101671.6;;;;-73
2023/04/21 01:42:08;;;;;;;16;8.2;;;;;;;;;;;;;-71
2023/04/21 01:43:02;;;;;;;;;;;;;;;8.88;70.81641;101664.8;;;;-72
2023/04/21 01:48:04;;;;;;;;;;;;;;;8.88;70.84082;101644.9;;;;-72
2023/04/21 01:53:01;;;;;;;;;;;;;;;8.85;70.91211;101649.7;;;;-72
2023/04/21 01:58:03;;;;;;;;;;;;;;;8.84;70.7334;101639.1;;;;-72
2023/04/21 02:03:01;;;;;;;;;;;;;;;8.85;71.20996;101637.4;;;;-71
2023/04/21 02:08:01;;;;;;;;;;;;;;;8.82;70.86133;101639.4;;;;-72
2023/04/21 02:12:10;;;;;;;14.1;7.9;;;;;;;;;;;;;-71
2023/04/21 02:13:01;;;;;;;;;;;;;;;8.81;70.74023;101633.9;;;;-71
2023/04/21 02:18:01;;;;;;;;;;;;;;;8.8;70.68164;101635.5;;;;-71
2023/04/21 02:23:01;;;;;;;;;;;;;;;8.79;71.03418;101615.9;;;;-72
2023/04/21 02:28:01;;;;;;;;;;;;;;;8.77;70.72266;101625.5;;;;-72
2023/04/21 02:33:01;;;;;;;;;;;;;;;8.76;70.37793;101610;;;;-72
2023/04/21 02:38:06;;;;;;;;;;;;;;;8.75;70.26758;101617.7;;;;-72
2023/04/21 02:42:10;;;;;;;15.8;8.2;;;;;;;;;;;;;-74
2023/04/21 02:43:07;;;;;;;;;;;;;;;8.77;70.14746;101611.6;;;;-73
2023/04/21 02:48:01;;;;;;;;;;;;;;;8.76;70.34473;101610.1;;;;-72
2023/04/21 02:53:01;;;;;;;;;;;;;;;8.76;70.88574;101615.1;;;;-71
2023/04/21 02:58:03;;;;;;;;;;;;;;;8.75;70.76172;101603.8;;;;-73
2023/04/21 03:03:01;;;;;;;;;;;;;;;8.74;71.4248;101608.2;;;;-72
2023/04/21 03:08:04;;;;;;;;;;;;;;;8.74;70.48535;101606.4;;;;-72
2023/04/21 03:12:14;;;;;;;14;7.8;;;;;;;;;;;;;-71
2023/04/21 03:13:02;;;;;;;;;;;;;;;8.73;70.79492;101610.7;;;;-71
2023/04/21 03:18:03;;;;;;;;;;;;;;;8.74;70.7832;101608;;;;-71
2023/04/21 03:23:01;;;;;;;;;;;;;;;8.74;70.92676;101602.5;;;;-71
2023/04/21 03:28:01;;;;;;;;;;;;;;;8.72;70.95703;101598.1;;;;-71
2023/04/21 03:33:02;;;;;;;;;;;;;;;8.72;71.05566;101606.6;;;;-70
2023/04/21 03:38:03;;;;;;;;;;;;;;;8.73;71.45605;101615.8;;;;-71
2023/04/21 03:42:12;;;;;;;11.5;6.4;;;;;;;;;;;;;-70
2023/04/21 03:43:01;;;;;;;;;;;;;;;8.72;71.43066;101617.5;;;;-73
2023/04/21 03:48:02;;;;;;;;;;;;;;;8.7;71.28613;101608.6;;;;-71
2023/04/21 03:53:01;;;;;;;;;;;;;;;8.69;71.74707;101599.6;;;;-71
2023/04/21 03:58:01;;;;;;;;;;;;;;;8.69;71.61426;101611.5;;;;-71
2023/04/21 04:03:04;;;;;;;;;;;;;;;8.68;71.44824;101596.8;;;;-71
2023/04/21 04:08:01;;;;;;;;;;;;;;;8.68;71.17285;101589;;;;-72
2023/04/21 04:12:16;;;;;;;9.2;5.5;;;;;;;;;;;;;-72
2023/04/21 04:13:01;;;;;;;;;;;;;;;8.67;70.92676;101576.9;;;;-71
2023/04/21 04:18:02;;;;;;;;;;;;;;;8.66;70.8252;101573;;;;-71
2023/04/21 04:23:01;;;;;;;;;;;;;;;8.65;71.06543;101573.9;;;;-72
2023/04/21 04:28:01;;;;;;;;;;;;;;;8.65;71.06738;101564.7;;;;-71
2023/04/21 04:33:01;;;;;;;;;;;;;;;8.63;71.42871;101579.7;;;;-70
2023/04/21 04:38:06;;;;;;;;;;;;;;;8.63;71.45215;101572.2;;;;-71
2023/04/21 04:42:15;;;;;;;12.9;6.8;;;;;;;;;;;;;-72
2023/04/21 04:43:03;;;;;;;;;;;;;;;8.64;71.41895;101580.4;;;;-72
2023/04/21 04:48:07;;;;;;;;;;;;;;;8.62;72.05664;101592;;;;-71
2023/04/21 04:53:01;;;;;;;;;;;;;;;8.63;71.64844;101588.2;;;;-71
2023/04/21 04:58:06;;;;;;;;;;;;;;;8.64;72.11523;101586.6;;;;-73
2023/04/21 05:03:01;;;;;;;;;;;;;;;8.63;71.33105;101577.6;;;;-71
2023/04/21 05:08:01;;;;;;;;;;;;;;;8.65;71.3877;101585.5;;;;-71
2023/04/21 05:12:17;;;;;;;13.4;7.8;;;;;;;;;;;;;-71
2023/04/21 05:13:08;;;;;;;;;;;;;;;8.65;72.28223;101597.4;;;;-73
2023/04/21 05:18:01;;;;;;;;;;;;;;;8.66;72.92383;101601.2;;;;-71
2023/04/21 05:23:01;;;;;;;;;;;;;;;8.68;72.24219;101594.6;;;;-70
2023/04/21 05:28:01;;;;;;;;;;;;;;;8.69;72.49805;101603;;;;-71
2023/04/21 05:33:01;;;;;;;;;;;;;;;8.7;73.82422;101605.8;;;;-72
2023/04/21 05:38:01;;;;;;;;;;;;;;;8.7;74.66309;101588.6;;;;-70
2023/04/21 05:42:17;;;;;;;15.9;8.8;;;;;;;;;;;;;-70
2023/04/21 05:43:01;;;;;;;;;;;;;;;8.72;74.91016;101569.2;;;;-70
2023/04/21 05:48:01;;;;;;;;;;;;;;;8.73;76.18262;101590;;;;-70
2023/04/21 05:53:03;;;;;;;;;;;;;;;8.76;76.11914;101590.3;;;;-71
2023/04/21 05:58:01;;;;;;;;;;;;;;;8.79;75.88086;101587.9;;;;-71
2023/04/21 06:03:01;;;;;;;;;;;;;;;8.8;75.7627;101580.9;;;;-73
2023/04/21 06:08:01;;;;;;;;;;;;;;;8.82;75.64453;101588.4;;;;-71
2023/04/21 06:12:19;;;;;;;18.9;10.5;;;;;;;;;;;;;-72
2023/04/21 06:13:01;;;;;;;;;;;;;;;8.85;76.84082;101589.9;;;;-70
2023/04/21 06:18:04;;;;;;;;;;;;;;;8.87;77.79297;101585.2;;;;-70
2023/04/21 06:23:01;;;;;;;;;;;;;;;8.93;77.60645;101589.5;;;;-70
2023/04/21 06:28:02;;;;;;;;;;;;;;;8.98;77.86914;101585.8;;;;-70
2023/04/21 06:33:03;;;;;;;;;;;;;;;9.02;77.43457;101589.3;;;;-71
2023/04/21 06:38:01;;;;;;;;;;;;;;;9.07;79.46191;101585.9;;;;-70
2023/04/21 06:42:20;;;;;;;19.7;10.6;;;;;;;;;;;;;-70
2023/04/21 06:43:01;;;;;;;;;;;;;;;9.11;79.88867;101586.3;;;;-71
2023/04/21 06:48:01;;;;;;;;;;;;;;;9.13;81.20508;101586.3;;;;-70
2023/04/21 06:53:01;;;;;;;;;;;;;;;9.15;80.10547;101582.2;;;;-69
2023/04/21 06:58:01;;;;;;;;;;;;;;;9.17;79.66699;101572.6;;;;-69
2023/04/21 07:03:01;;;;;;;;;;;;;;;9.19;79.97949;101590.3;;;;-70
2023/04/21 07:08:02;;;;;;;;;;;;;;;9.23;80.53906;101596.8;;;;-72
2023/04/21 07:12:21;;;;;;;21.7;10.9;;;;;;;;;;;;;-71
2023/04/21 07:13:02;;;;;;;;;;;;;;;9.25;81.70117;101598.7;;;;-69
2023/04/21 07:18:03;;;;;;;;;;;;;;;9.29;81.63086;101575.8;;;;-70
2023/04/21 07:23:01;;;;;;;;;;;;;;;9.34;82.54297;101595.2;;;;-70
2023/04/21 07:28:01;;;;;;;;;;;;;;;9.37;80.77441;101589.8;;;;-71
2023/04/21 07:33:01;;;;;;;;;;;;;;;9.38;80.21289;101571.3;;;;-70
2023/04/21 07:38:01;;;;;;;;;;;;;;;9.42;79.40332;101588.5;;;;-70
2023/04/21 07:42:25;;;;;;;18.2;10.7;;;;;;;;;;;;;-70
2023/04/21 07:43:02;;;;;;;;;;;;;;;9.45;80.29297;101584.9;;;;-70
2023/04/21 07:48:01;;;;;;;;;;;;;;;9.47;80.68262;101578.1;;;;-70
2023/04/21 07:53:01;;;;;;;;;;;;;;;9.54;80.34082;101579.2;;;;-71
2023/04/21 07:58:01;;;;;;;;;;;;;;;9.62;79.30664;101588.4;;;;-70
2023/04/21 08:03:01;;;;;;;;;;;;;;;9.82;80.42578;101596.8;;;;-69
2023/04/21 08:08:01;;;;;;;;;;;;;;;10.12;81.64355;101588.3;;;;-70
2023/04/21 08:12:24;;;;;;;21.3;11.3;;;;;;;;;;;;;-72
2023/04/21 08:13:05;;;;;;;;;;;;;;;10.35;81.43164;101590.1;;;;-70
2023/04/21 08:18:01;;;;;;;;;;;;;;;10.75;82.19238;101590.3;;;;-70
2023/04/21 08:23:03;;;;;;;;;;;;;;;11.11;80.03223;101583.3;;;;-71
2023/04/21 08:28:01;;;;;;;;;;;;;;;11.3;78.89355;101589.8;;;;-70
2023/04/21 08:33:01;;;;;;;;;;;;;;;11.28;80.81738;101591.2;;;;-69
2023/04/21 08:38:12;;;;;;;;;;;;;;;11.2;79.05371;101583.7;;;;-71
2023/04/21 08:42:26;;;;;;;18.8;10.6;;;;;;;;;;;;;-70
2023/04/21 08:43:01;;;;;;;;;;;;;;;11.21;80.80469;101590.4;;;;-70
2023/04/21 08:48:03;;;;;;;;;;;;;;;11.16;79.08984;101597.1;;;;-70
2023/04/21 08:53:13;;;;;;;;;;;;;;;11.12;78.91699;101599.5;;;;-70
2023/04/21 08:58:01;;;;;;;;;;;;;;;11.14;82.77539;101602.1;;;;-70
2023/04/21 09:03:02;;;;;;;;;;;;;;;11.09;81.04688;101608.7;;;;-70
2023/04/21 09:08:11;;;;;;;;;;;;;;;11.08;82.13184;101603.3;;;;-70
2023/04/21 09:12:27;;;;;;;24.9;11.9;;;;;;;;;;;;;-71
2023/04/21 09:13:03;;;;;;;;;;;;;;;11.09;83.4082;101600.9;;;;-71
2023/04/21 09:18:01;;;;;;;;;;;;;;;11.11;80.63281;101597.2;;;;-71
2023/04/21 09:23:01;;;;;;;;;;;;;;;11.23;80.30957;101592.7;;;;-70
2023/04/21 09:28:04;;;;;;;;;;;;;;;11.38;79.87207;101594.1;;;;-70
2023/04/21 09:33:02;;;;;;;;;;;;;;;11.52;79.14258;101590.6;;;;-71
2023/04/21 09:38:01;;;;;;;;;;;;;;;11.63;78.51855;101589.5;;;;-71
2023/04/21 09:42:34;;;;;;;22.1;11.1;;;;;;;;;;;;;-72
2023/04/21 09:43:01;;;;;;;;;;;;;;;11.74;79.33691;101585.4;;;;-70
2023/04/21 09:48:03;;;;;;;;;;;;;;;11.86;79.02734;101577.8;;;;-70
2023/04/21 09:53:02;;;;;;;;;;;;;;;11.99;78.11719;101581;;;;-69
2023/04/21 09:58:04;;;;;;;;;;;;;;;12.1;77.66992;101575.6;;;;-69
2023/04/21 10:03:03;;;;;;;;;;;;;;;12.32;78.06445;101562.8;;;;-69
2023/04/21 10:08:01;;;;;;;;;;;;;;;12.58;76.9873;101567.2;;;;-69
2023/04/21 10:12:31;;;;;;;20.5;11.3;;;;;;;;;;;;;-70
2023/04/21 10:13:01;;;;;;;;;;;;;;;12.71;77.00977;101558.6;;;;-70
2023/04/21 10:18:11;;;;;;;;;;;;;;;12.83;77.47559;101560.7;;;;-70
2023/04/21 10:23:03;;;;;;;;;;;;;;;12.94;81.49023;101570.7;;;;-70
2023/04/21 10:28:01;;;;;;;;;;;;;;;12.91;78.14746;101565.2;;;;-69
2023/04/21 10:33:08;;;;;;;;;;;;;;;12.89;80.57031;101563.6;;;;-71
2023/04/21 10:38:01;;;;;;;;;;;;;;;12.85;78.46973;101553.2;;;;-70
2023/04/21 10:42:36;;;;;;;22.4;12.6;;;;;;;;;;;;;-71
2023/04/21 10:43:01;;;;;;;;;;;;;;;12.92;81.00879;101556.6;;;;-69
2023/04/21 10:48:02;;;;;;;;;;;;;;;12.86;79.20801;101558;;;;-69
2023/04/21 10:53:02;;;;;;;;;;;;;;;12.84;78.9248;101550.5;;;;-72
2023/04/21 10:58:04;;;;;;;;;;;;;;;12.82;78.69824;101548.5;;;;-71
2023/04/21 11:03:02;;;;;;;;;;;;;;;12.85;78.92578;101535.7;;;;-69
2023/04/21 11:08:10;;;;;;;;;;;;;;;12.91;78.42578;101538.7;;;;-70
2023/04/21 11:12:35;;;;;;;23.9;12.5;;;;;;;;;;;;;-70
2023/04/21 11:13:01;;;;;;;;;;;;;;;12.97;80.11719;101540.2;;;;-69
2023/04/21 11:18:01;;;;;;;;;;;;;;;12.98;79.10449;101530.2;;;;-70
2023/04/21 11:23:01;;;;;;;;;;;;;;;13.04;78.18262;101520.4;;;;-70
2023/04/21 11:28:03;;;;;;;;;;;;;;;13.14;77.77539;101506.5;;;;-71
2023/04/21 11:33:01;;;;;;;;;;;;;;;13.23;77.24609;101505.5;;;;-69
2023/04/21 11:38:07;;;;;;;;;;;;;;;13.35;78.3252;101497.8;;;;-70
2023/04/21 11:42:37;;;;;;;23.1;13.7;;;;;;;;;;;;;-69
2023/04/21 11:43:01;;;;;;;;;;;;;;;13.41;77.82422;101488.9;;;;-70
2023/04/21 11:48:11;;;;;;;;;;;;;;;13.5;76.99219;101486.6;;;;-71
2023/04/21 11:53:01;;;;;;;;;;;;;;;13.83;75.94531;101480.6;;;;-72
2023/04/21 11:58:02;;;;;;;;;;;;;;;14.21;79.40527;101486.8;;;;-71
2023/04/21 12:03:01;;;;;;;;;;;;;;;14.29;78.82813;101476.6;;;;-70
2023/04/21 12:08:02;;;;;;;;;;;;;;;14.21;75.95508;101481.6;;;;-71
2023/04/21 12:12:40;;;;;;;23.4;14.2;;;;;;;;;;;;;-70
2023/04/21 12:13:02;;;;;;;;;;;;;;;14.18;76.5293;101472.6;;;;-71
2023/04/21 12:18:01;;;;;;;;;;;;;;;14.23;76.72949;101467.9;;;;-71
2023/04/21 12:23:01;;;;;;;;;;;;;;;14.33;78.72559;101456.3;;;;-69
2023/04/21 12:28:03;;;;;;;;;;;;;;;14.46;76.85938;101448;;;;-70
2023/04/21 12:33:03;;;;;;;;;;;;;;;14.63;78.3877;101443.3;;;;-71
2023/04/21 12:38:01;;;;;;;;;;;;;;;14.83;79.16992;101433.9;;;;-71
2023/04/21 12:42:41;;;;;;;25.9;15.1;;;;;;;;;;;;;-69
2023/04/21 12:43:01;;;;;;;;;;;;;;;14.98;77.90039;101426;;;;-69
2023/04/21 12:48:02;;;;;;;;;;;;;;;15.17;78.62695;101422;;;;-70
2023/04/21 12:53:05;;;;;;;;;;;;;;;15.36;77.97949;101417.1;;;;-70
2023/04/21 12:58:01;;;;;;;;;;;;;;;15.5;77.46582;101409.1;;;;-70
2023/04/21 13:03:01;;;;;;;;;;;;;;;15.78;76.14746;101403.4;;;;-71
2023/04/21 13:08:01;;;;;;;;;;;;;;;16.01;75.60352;101401.2;;;;-69
2023/04/21 13:12:43;;;;;;;27.4;15.3;;;;;;;;;;;;;-70
2023/04/21 13:13:01;;;;;;;;;;;;;;;16.29;75.14453;101392.7;;;;-70
2023/04/21 13:18:02;;;;;;;;;;;;;;;16.48;76.14453;101383;;;;-69
2023/04/21 13:23:01;;;;;;;;;;;;;;;16.78;78.4082;101365.3;;;;-71
2023/04/21 13:28:01;;;;;;;;;;;;;;;17.13;72.35156;101357.5;;;;-69
2023/04/21 13:33:04;;;;;;;;;;;;;;;17.19;76.77148;101356.8;;;;-69
2023/04/21 13:38:01;;;;;;;;;;;;;;;17.03;74.42773;101348.1;;;;-69
2023/04/21 13:42:46;;;;;;;26.7;14.9;;;;;;;;;;;;;-71
2023/04/21 13:43:01;;;;;;;;;;;;;;;16.98;75.9707;101350.6;;;;-69
2023/04/21 13:48:01;;;;;;;;;;;;;;;16.88;72.83887;101337.9;;;;-70
2023/04/21 13:53:03;;;;;;;;;;;;;;;16.81;71.15039;101340.8;;;;-71
2023/04/21 13:58:01;;;;;;;;;;;;;;;16.87;74.64941;101324.3;;;;-69
2023/04/21 14:03:01;;;;;;;;;;;;;;;16.89;73.69531;101314;;;;-72
2023/04/21 14:08:01;;;;;;;;;;;;;;;16.96;75.28125;101298.4;;;;-70
2023/04/21 14:12:48;;;;;;;23.2;14.2;;;;;;;;;;;;;-70
2023/04/21 14:13:01;;;;;;;;;;;;;;;17.17;77.12793;101292;;;;-70
2023/04/21 14:18:01;;;;;;;;;;;;;;;17.36;72.37695;101283.3;;;;-69
2023/04/21 14:23:04;;;;;;;;;;;;;;;17.69;75.24707;101266.2;;;;-69
2023/04/21 14:28:05;;;;;;;;;;;;;;;17.87;76.46289;101270.7;;;;-70
2023/04/21 14:33:01;;;;;;;;;;;;;;;18.02;74.80859;101263;;;;-71
2023/04/21 14:38:01;;;;;;;;;;;;;;;18.21;75.03125;101260.3;;;;-69
2023/04/21 14:42:54;;;;;;;22.2;14.1;;;;;;;;;;;;;-70
2023/04/21 14:43:04;;;;;;;;;;;;;;;18.58;77.01172;101250.4;;;;-70
2023/04/21 14:48:03;;;;;;;;;;;;;;;18.82;73.42773;101248.2;;;;-69
2023/04/21 14:53:00;;;;;;;;;;;;;;;19.06;74.75684;101228.5;;;;-69
2023/04/21 14:58:01;;;;;;;;;;;;;;;19.2;73.35547;101226.2;;;;-70
2023/04/21 15:03:01;;;;;;;;;;;;;;;19.41;75.01855;101220.2;;;;-70
2023/04/21 15:08:01;;;;;;;;;;;;;;;19.63;72.59961;101204.8;;;;-69
2023/04/21 15:12:54;;;;;;;19.8;13;;;;;;;;;;;;;-70
2023/04/21 15:13:04;;;;;;;;;;;;;;;19.81;72.1875;101197.9;;;;-72
2023/04/21 15:18:01;;;;;;;;;;;;;;;19.93;72.8291;101188.5;;;;-70
2023/04/21 15:23:01;;;;;;;;;;;;;;;20.02;74.04688;101179.3;;;;-69
2023/04/21 15:28:01;;;;;;;;;;;;;;;19.82;70.375;101169.9;;;;-70
2023/04/21 15:33:03;;;;;;;;;;;;;;;19.62;67.08105;101158.9;;;;-69
2023/04/21 15:38:01;;;;;;;;;;;;;;;19.59;68.49219;101160.3;;;;-71
2023/04/21 15:42:58;;;;;;;21.1;12.4;;;;;;;;;;;;;-70
2023/04/21 15:43:11;;;;;;;;;;;;;;;19.27;67.08398;101141.7;;;;-71
2023/04/21 15:48:02;;;;;;;;;;;;;;;18.92;66.86035;101139.3;;;;-72
2023/04/21 15:53:01;;;;;;;;;;;;;;;18.59;70.25098;101133.3;;;;-71
2023/04/21 15:58:01;;;;;;;;;;;;;;;18.31;70.3418;101129.4;;;;-71
2023/04/21 16:03:02;;;;;;;;;;;;;;;18.09;70.87012;101121.2;;;;-71
2023/04/21 16:08:01;;;;;;;;;;;;;;;17.91;72.04883;101110.6;;;;-68
2023/04/21 16:13:01;;;;;;;;;;;;;;;17.79;72.80762;101122.1;;;;-71
2023/04/21 16:13:14;;;;;;;17.9;11.6;;;;;;;;;;;;;-71
2023/04/21 16:18:04;;;;;;;;;;;;;;;17.63;73.59375;101100.6;;;;-70
2023/04/21 16:23:01;;;;;;;;;;;;;;;17.47;74.19531;101100.5;;;;-70
2023/04/21 16:28:01;;;;;;;;;;;;;;;17.3;74.2373;101090.5;;;;-70
2023/04/21 16:33:04;;;;;;;;;;;;;;;17.12;74.24023;101079.1;;;;-72
2023/04/21 16:38:01;;;;;;;;;;;;;;;16.99;74.00391;101067.9;;;;-70
2023/04/21 16:43:01;;;;;;;;;;;;;;;16.81;73.7041;101058.9;;;;-70
2023/04/21 16:43:11;;;;;;;18.9;12.1;;;;;;;;;;;;;-70
2023/04/21 16:48:01;;;;;;;;;;;;;;;16.65;73.42969;101052.9;;;;-71
2023/04/21 16:53:01;;;;;;;;;;;;;;;16.5;72.93457;101054.2;;;;-71
2023/04/21 16:58:01;;;;;;;;;;;;;;;16.39;72.79102;101048;;;;-71
2023/04/21 17:03:01;;;;;;;;;;;;;;;16.35;72.2793;101041.2;;;;-69
2023/04/21 17:08:01;;;;;;;;;;;;;;;16.32;72.04883;101049.4;;;;-71
2023/04/21 17:13:01;;;;;;;;;;;;;;;16.3;71.5625;101047.3;;;;-72
2023/04/21 17:13:14;;;;;;;19.7;12.5;;;;;;;;;;;;;-72
2023/04/21 17:18:01;;;;;;;;;;;;;;;16.23;71.78711;101051.6;;;;-69
2023/04/21 17:23:03;;;;;;;;;;;;;;;16.11;71.9375;101043.4;;;;-71
2023/04/21 17:28:01;;;;;;;;;;;;;;;15.99;72.15332;101037.6;;;;-70
2023/04/21 17:33:02;;;;;;;;;;;;;;;15.88;72.29395;101033.4;;;;-71
2023/04/21 17:38:02;;;;;;;;;;;;;;;15.77;71.93945;101033.5;;;;-70
2023/04/21 17:43:01;;;;;;;;;;;;;;;15.69;71.99219;101025.7;;;;-70
2023/04/21 17:43:10;;;;;;;21.6;13.1;;;;;;;;;;;;;-70
2023/04/21 17:48:01;;;;;;;;;;;;;;;15.6;71.83105;101014.7;;;;-69
2023/04/21 17:53:04;;;;;;;;;;;;;;;15.46;72.01074;100999;;;;-71
2023/04/21 17:58:00;;;;;;;;;;;;;;;15.29;71.75781;100981.4;;;;-71
2023/04/21 18:03:03;;;;;;;;;;;;;;;15.11;72.23438;100963.3;;;;-72
2023/04/21 18:08:03;;;;;;;;;;;;;;;14.95;72.43066;100956.4;;;;-69
2023/04/21 18:13:02;;;;;;;;;;;;;;;14.76;72.73828;100955;;;;-71
2023/04/21 18:13:13;;;;;;;20.7;12.8;;;;;;;;;;;;;-71
2023/04/21 18:18:01;;;;;;;;;;;;;;;14.63;72.64844;100976.4;;;;-70
2023/04/21 18:23:01;;;;;;;;;;;;;;;14.48;72.55762;100974.8;;;;-70
2023/04/21 18:28:01;;;;;;;;;;;;;;;14.33;72.58594;100964.8;;;;-70
2023/04/21 18:33:01;;;;;;;;;;;;;;;14.21;72.1875;100966.6;;;;-71
2023/04/21 18:38:01;;;;;;;;;;;;;;;14.09;72.54883;100957.3;;;;-70
2023/04/21 18:43:02;;;;;;;;;;;;;;;14;72.53223;100971.6;;;;-71
2023/04/21 18:43:15;;;;;;;20.3;12.3;;;;;;;;;;;;;-73
2023/04/21 18:48:01;;;;;;;;;;;;;;;13.9;72.55078;101007.1;;;;-70
2023/04/21 18:53:03;;;;;;;;;;;;;;;13.82;72.3916;101000.5;;;;-70
2023/04/21 18:58:01;;;;;;;;;;;;;;;13.73;72.72461;101052.6;;;;-70
2023/04/21 19:03:03;;;;;;;;;;;;;;;13.66;73.4707;101084.7;;;;-75
2023/04/21 19:08:01;;;;;;;;;;;;;;;13.51;74.9209;101048.2;;;;-72
2023/04/21 19:13:01;;;;;;;;;;;;;;;13.39;73.92871;100973.4;;;;-72
2023/04/21 19:13:18;;;;;;;20.8;11.6;;;;;;;;;;;;;-70
2023/04/21 19:18:01;;;;;;;;;;;;;;;13.28;73.76563;100926.4;;;;-71
2023/04/21 19:23:04;;;;;;;;;;;;;;;13.2;74.05273;100962.4;;;;-71
2023/04/21 19:28:03;;;;;;;;;;;;;;;13.06;74.88867;100977;;;;-72
2023/04/21 19:33:04;;;;;;;;;;;;;;;12.92;75.28711;100973.7;;;;-71
2023/04/21 19:38:03;;;;;;;;;;;;;;;12.78;75.22852;100971.2;;;;-71
2023/04/21 19:43:03;;;;;;;;;;;;;;;12.62;75.96094;100960.2;;;;-72
2023/04/21 19:43:21;;;;;;;17.1;10.2;;;;;;;;;;;;;-73
2023/04/21 19:48:06;;;;;;;;;;;;;;;12.51;75.22754;100943.7;;;;-71
2023/04/21 19:53:01;;;;;;;;;;;;;;;12.38;75.34961;100948.3;;;;-75
2023/04/21 19:58:01;;;;;;;;;;;;;;;12.27;75.31934;100944.3;;;;-72
2023/04/21 20:03:02;;;;;;;;;;;;;;;12.14;75.45508;100939;;;;-71
2023/04/21 20:08:01;;;;;;;;;;;;;;;12.01;75.29785;100930.5;;;;-70
2023/04/21 20:13:01;;;;;;;;;;;;;;;11.87;75.40625;100939.1;;;;-71
2023/04/21 20:13:25;;;;;;;15.3;8.5;;;;;;;;;;;;;-70
2023/04/21 20:18:09;;;;;;;;;;;;;;;11.73;75.56152;100938.3;;;;-71
2023/04/21 20:23:01;;;;;;;;;;;;;;;11.61;75.97168;100941.3;;;;-72
2023/04/21 20:28:03;;;;;;;;;;;;;;;11.48;75.68457;100915.1;;;;-71
2023/04/21 20:33:01;;;;;;;;;;;;;;;11.37;75.69922;100934.6;;;;-70
2023/04/21 20:38:07;;;;;;;;;;;;;;;11.33;75.69141;100953.8;;;;-70
2023/04/21 20:43:04;;;;;;;;;;;;;;;11.25;75.48828;100952;;;;-70
2023/04/21 20:43:26;;;;;;;13.1;7.5;;;;;;;;;;;;;-70
2023/04/21 20:48:02;;;;;;;;;;;;;;;11.17;75.71875;100945.1;;;;-71
2023/04/21 20:53:01;;;;;;;;;;;;;;;11.12;75.98926;100954.8;;;;-70
2023/04/21 20:58:01;;;;;;;;;;;;;;;11.1;75.88672;100968.6;;;;-70
2023/04/21 21:03:08;;;;;;;;;;;;;;;11.06;76.43262;100971.9;;;;-71
2023/04/21 21:08:01;;;;;;;;;;;;;;;11.05;76.50879;100952.1;;;;-71
2023/04/21 21:13:01;;;;;;;;;;;;;;;11.04;76.04004;100919.4;;;;-70
2023/04/21 21:13:26;;;;;;;11;6.3;;;;;;;;;;;;;-70
2023/04/21 21:18:02;;;;;;;;;;;;;;;11.02;75.9707;100921.8;;;;-72
2023/04/21 21:23:01;;;;;;;;;;;;;;;10.98;76.03027;100914.4;;;;-71
2023/04/21 21:28:01;;;;;;;;;;;;;;;10.96;76.36914;100937.8;;;;-69
2023/04/21 21:33:01;;;;;;;;;;;;;;;10.91;77.45898;101006.8;;;;-71
2023/04/21 21:38:01;;;;;;;;;;;;;;;10.9;77.25977;101030.7;;;;-71
2023/04/21 21:43:01;;;;;;;;;;;;;;;10.89;78.36328;101030.1;;;;-71
2023/04/21 21:43:32;;;;;;;8.1;4.5;;;;;;;;;;;;;-72
2023/04/21 21:48:03;;;;;;;;;;;;;;;10.85;78.55762;101020.8;;;;-72
2023/04/21 21:53:02;;;;;;;;;;;;;;;10.83;79.26172;101025.4;;;;-71
2023/04/21 21:58:03;;;;;;;;;;;;;;;10.77;79.69434;101023.9;;;;-72
2023/04/21 22:03:06;;;;;;;;;;;;;;;10.74;80.54004;101032.9;;;;-72
2023/04/21 22:08:00;;;;;;;;;;;;;;;10.7;80.10156;101017.2;;;;-73
2023/04/21 22:13:01;;;;;;;;;;;;;;;10.66;79.90723;101029.1;;;;-72
2023/04/21 22:13:29;;;;;;;9.1;4.5;;;;;;;;;;;;;-71
2023/04/21 22:18:01;;;;;;;;;;;;;;;10.62;80.26367;101013.9;;;;-72
2023/04/21 22:23:02;;;;;;;;;;;;;;;10.56;80.50781;100997;;;;-73
2023/04/21 22:28:01;;;;;;;;;;;;;;;10.54;80.09375;100989.7;;;;-71
2023/04/21 22:33:05;;;;;;;;;;;;;;;10.48;80.25;100957.9;;;;-73
2023/04/21 22:38:01;;;;;;;;;;;;;;;10.43;79.8877;100954.8;;;;-71
2023/04/21 22:43:01;;;;;;;;;;;;;;;10.4;79.73828;100954;;;;-72
2023/04/21 22:43:31;;;;;;;6.4;3.7;;;;;;;;;;;;;-71
2023/04/21 22:48:01;;;;;;;;;;;;;;;10.39;79.45898;100949.6;;;;-72
2023/04/21 22:53:01;;;;;;;;;;;;;;;10.34;79.50586;100950.5;;;;-72
2023/04/21 22:58:01;;;;;;;;;;;;;;;10.29;79.19922;100948.5;;;;-70
2023/04/21 23:03:01;;;;;;;;;;;;;;;10.24;79.49902;100952.9;;;;-71
2023/04/21 23:08:02;;;;;;;;;;;;;;;10.17;79.75098;100953.5;;;;-70
2023/04/21 23:13:01;;;;;;;;;;;;;;;10.09;79.63672;100944.4;;;;-71
2023/04/21 23:13:33;;;;;;;7;3.6;;;;;;;;;;;;;-71
2023/04/21 23:18:01;;;;;;;;;;;;;;;9.99;79.53125;100941.3;;;;-71
2023/04/21 23:23:01;;;;;;;;;;;;;;;9.93;79.41895;100944.3;;;;-69
2023/04/21 23:28:01;;;;;;;;;;;;;;;9.85;79.74805;100941.4;;;;-71
2023/04/21 23:33:02;;;;;;;;;;;;;;;9.77;79.24707;100939.1;;;;-71
2023/04/21 23:38:01;;;;;;;;;;;;;;;9.67;79.57227;100932.1;;;;-71
2023/04/21 23:43:01;;;;;;;;;;;;;;;9.58;79.49023;100935.2;;;;-71
2023/04/21 23:43:36;;;;;;;6.2;3.5;;;;;;;;;;;;;-70
2023/04/21 23:48:01;;;;;;;;;;;;;;;9.49;80.06738;100933.1;;;;-72
2023/04/21 23:53:00;;;;;;;;;;;;;;;9.42;79.75684;100925.5;;;;-72
2023/04/21 23:58:01;;;;;;;;;;;;;;;9.36;80.45215;100926.5;;;;-70
